sensor_id;sensor_type;location;lat;lon;timestamp;pressure;altitude;pressure_sealevel;temperature;humidity
31088;BME280;17745;55.914;37.554;2023-07-29T00:00:42;98193.78;;;17.18;84.09
31088;BME280;17745;55.914;37.554;2023-07-29T00:03:14;98205.00;;;17.02;84.90
31088;BME280;17745;55.914;37.554;2023-07-29T00:05:43;98203.28;;;17.15;84.09
31088;BME280;17745;55.914;37.554;2023-07-29T00:08:14;98213.97;;;17.15;84.09
31088;BME280;17745;55.914;37.554;2023-07-29T00:10:43;98214.09;;;17.19;83.96
31088;BME280;17745;55.914;37.554;2023-07-29T00:13:13;98227.78;;;17.26;83.81
31088;BME280;17745;55.914;37.554;2023-07-29T00:15:43;98224.13;;;17.22;83.99
31088;BME280;17745;55.914;37.554;2023-07-29T00:18:13;98218.34;;;17.20;84.00
31088;BME280;17745;55.914;37.554;2023-07-29T00:20:46;98198.19;;;17.22;83.82
31088;BME280;17745;55.914;37.554;2023-07-29T00:23:31;98202.44;;;17.23;83.72
31088;BME280;17745;55.914;37.554;2023-07-29T00:26:05;98195.03;;;17.29;83.14
31088;BME280;17745;55.914;37.554;2023-07-29T00:28:35;98194.91;;;17.17;83.67
31088;BME280;17745;55.914;37.554;2023-07-29T00:31:03;98198.69;;;17.15;83.80
31088;BME280;17745;55.914;37.554;2023-07-29T00:33:41;98198.09;;;17.01;84.18
31088;BME280;17745;55.914;37.554;2023-07-29T00:36:11;98201.56;;;16.93;84.46
31088;BME280;17745;55.914;37.554;2023-07-29T00:38:56;98200.94;;;16.96;84.22
31088;BME280;17745;55.914;37.554;2023-07-29T00:41:40;98204.25;;;16.93;84.38
31088;BME280;17745;55.914;37.554;2023-07-29T00:44:15;98209.59;;;17.02;84.05
31088;BME280;17745;55.914;37.554;2023-07-29T00:46:46;98207.22;;;17.00;84.14
31088;BME280;17745;55.914;37.554;2023-07-29T00:49:16;98209.41;;;17.07;84.03
31088;BME280;17745;55.914;37.554;2023-07-29T00:51:45;98207.84;;;16.97;84.25
31088;BME280;17745;55.914;37.554;2023-07-29T00:54:14;98219.19;;;17.03;84.11
31088;BME280;17745;55.914;37.554;2023-07-29T00:56:42;98219.00;;;17.08;83.85
31088;BME280;17745;55.914;37.554;2023-07-29T00:59:12;98206.59;;;17.03;83.91
31088;BME280;17745;55.914;37.554;2023-07-29T01:01:43;98209.59;;;17.02;83.93
31088;BME280;17745;55.914;37.554;2023-07-29T01:04:13;98204.88;;;16.98;84.05
31088;BME280;17745;55.914;37.554;2023-07-29T01:06:50;98200.47;;;17.03;83.79
31088;BME280;17745;55.914;37.554;2023-07-29T01:09:41;98199.06;;;17.05;83.81
31088;BME280;17745;55.914;37.554;2023-07-29T01:12:20;98200.00;;;16.92;84.14
31088;BME280;17745;55.914;37.554;2023-07-29T01:14:59;98191.84;;;16.79;84.70
31088;BME280;17745;55.914;37.554;2023-07-29T01:17:36;98198.91;;;16.84;84.54
31088;BME280;17745;55.914;37.554;2023-07-29T01:20:17;98200.66;;;16.89;84.47
31088;BME280;17745;55.914;37.554;2023-07-29T01:22:51;98193.84;;;16.91;84.35
31088;BME280;17745;55.914;37.554;2023-07-29T01:25:25;98192.16;;;16.86;84.09
31088;BME280;17745;55.914;37.554;2023-07-29T01:27:55;98177.53;;;16.84;84.14
31088;BME280;17745;55.914;37.554;2023-07-29T01:30:31;98165.31;;;16.65;83.26
31088;BME280;17745;55.914;37.554;2023-07-29T01:33:06;98177.47;;;16.45;85.14
31088;BME280;17745;55.914;37.554;2023-07-29T01:35:42;98170.22;;;16.54;84.46
31088;BME280;17745;55.914;37.554;2023-07-29T01:38:16;98185.97;;;16.29;85.34
31088;BME280;17745;55.914;37.554;2023-07-29T01:40:50;98178.13;;;16.15;85.45
31088;BME280;17745;55.914;37.554;2023-07-29T01:43:21;98171.69;;;16.17;85.11
31088;BME280;17745;55.914;37.554;2023-07-29T01:45:55;98179.69;;;16.25;84.77
31088;BME280;17745;55.914;37.554;2023-07-29T01:48:26;98167.09;;;16.35;84.51
31088;BME280;17745;55.914;37.554;2023-07-29T01:51:05;98156.87;;;16.37;84.26
31088;BME280;17745;55.914;37.554;2023-07-29T01:53:38;98156.25;;;16.31;84.51
31088;BME280;17745;55.914;37.554;2023-07-29T01:56:14;98153.44;;;16.27;84.69
31088;BME280;17745;55.914;37.554;2023-07-29T01:58:48;98153.84;;;15.68;86.40
31088;BME280;17745;55.914;37.554;2023-07-29T02:01:18;98139.00;;;16.11;85.39
31088;BME280;17745;55.914;37.554;2023-07-29T02:03:47;98143.69;;;16.32;84.51
31088;BME280;17745;55.914;37.554;2023-07-29T02:06:24;98148.09;;;16.27;84.85
31088;BME280;17745;55.914;37.554;2023-07-29T02:08:57;98150.94;;;16.13;85.21
31088;BME280;17745;55.914;37.554;2023-07-29T02:11:36;98151.41;;;16.24;84.89
31088;BME280;17745;55.914;37.554;2023-07-29T02:14:05;98147.94;;;16.24;84.98
31088;BME280;17745;55.914;37.554;2023-07-29T02:16:41;98147.31;;;15.83;85.87
31088;BME280;17745;55.914;37.554;2023-07-29T02:19:38;98145.44;;;16.10;85.64
31088;BME280;17745;55.914;37.554;2023-07-29T02:22:16;98149.69;;;16.02;85.65
31088;BME280;17745;55.914;37.554;2023-07-29T02:24:49;98164.91;;;16.01;86.00
31088;BME280;17745;55.914;37.554;2023-07-29T02:27:23;98171.50;;;16.31;85.07
31088;BME280;17745;55.914;37.554;2023-07-29T02:30:03;98171.16;;;16.32;85.15
31088;BME280;17745;55.914;37.554;2023-07-29T02:32:37;98174.63;;;16.41;84.88
31088;BME280;17745;55.914;37.554;2023-07-29T02:35:16;98184.50;;;16.50;84.75
31088;BME280;17745;55.914;37.554;2023-07-29T02:38:07;98196.31;;;16.40;85.12
31088;BME280;17745;55.914;37.554;2023-07-29T02:40:54;98198.84;;;16.36;85.16
31088;BME280;17745;55.914;37.554;2023-07-29T02:50:42;98187.34;;;16.53;83.93
31088;BME280;17745;55.914;37.554;2023-07-29T02:53:11;98190.81;;;16.45;84.08
31088;BME280;17745;55.914;37.554;2023-07-29T02:55:41;98176.06;;;16.21;84.38
31088;BME280;17745;55.914;37.554;2023-07-29T02:58:13;98180.16;;;16.27;84.67
31088;BME280;17745;55.914;37.554;2023-07-29T03:00:43;98182.47;;;16.38;84.29
31088;BME280;17745;55.914;37.554;2023-07-29T03:03:41;98170.56;;;16.35;84.45
31088;BME280;17745;55.914;37.554;2023-07-29T03:06:16;98164.44;;;16.35;84.41
31088;BME280;17745;55.914;37.554;2023-07-29T03:09:04;98156.41;;;16.43;84.31
31088;BME280;17745;55.914;37.554;2023-07-29T03:11:38;98154.47;;;16.53;84.06
31088;BME280;17745;55.914;37.554;2023-07-29T03:14:15;98156.56;;;16.47;84.38
31088;BME280;17745;55.914;37.554;2023-07-29T03:16:51;98157.03;;;16.49;84.25
31088;BME280;17745;55.914;37.554;2023-07-29T03:19:32;98165.81;;;16.58;84.00
31088;BME280;17745;55.914;37.554;2023-07-29T03:22:16;98180.09;;;16.63;83.76
31088;BME280;17745;55.914;37.554;2023-07-29T03:24:55;98173.03;;;16.67;84.03
31088;BME280;17745;55.914;37.554;2023-07-29T03:27:28;98174.72;;;16.71;84.14
31088;BME280;17745;55.914;37.554;2023-07-29T03:30:04;98174.13;;;16.75;84.25
31088;BME280;17745;55.914;37.554;2023-07-29T03:32:43;98176.44;;;16.76;84.58
31088;BME280;17745;55.914;37.554;2023-07-29T03:36:04;98171.87;;;16.85;84.41
31088;BME280;17745;55.914;37.554;2023-07-29T03:39:30;98161.09;;;16.55;85.81
31088;BME280;17745;55.914;37.554;2023-07-29T03:42:32;98153.50;;;16.75;84.63
31088;BME280;17745;55.914;37.554;2023-07-29T03:45:22;98138.00;;;16.42;84.83
31088;BME280;17745;55.914;37.554;2023-07-29T13:36:58;98194.25;;;19.61;83.64
31088;BME280;17745;55.914;37.554;2023-07-29T13:39:30;98197.13;;;19.55;83.31
31088;BME280;17745;55.914;37.554;2023-07-29T13:41:59;98188.31;;;19.18;83.72
31088;BME280;17745;55.914;37.554;2023-07-29T13:44:30;98193.22;;;19.28;83.49
31088;BME280;17745;55.914;37.554;2023-07-29T13:47:01;98173.78;;;19.43;83.43
31088;BME280;17745;55.914;37.554;2023-07-29T13:49:36;98178.94;;;19.36;83.89
31088;BME280;17745;55.914;37.554;2023-07-29T13:52:27;98175.00;;;19.46;83.42
31088;BME280;17745;55.914;37.554;2023-07-29T13:55:13;98168.09;;;19.45;82.66
31088;BME280;17745;55.914;37.554;2023-07-29T13:57:47;98165.16;;;19.38;83.30
31088;BME280;17745;55.914;37.554;2023-07-29T14:00:19;98173.69;;;19.40;83.25
31088;BME280;17745;55.914;37.554;2023-07-29T14:02:59;98179.59;;;19.58;83.33
31088;BME280;17745;55.914;37.554;2023-07-29T14:05:31;98180.91;;;19.77;83.60
31088;BME280;17745;55.914;37.554;2023-07-29T14:08:11;98171.22;;;19.88;83.27
31088;BME280;17745;55.914;37.554;2023-07-29T14:10:42;98157.13;;;20.04;82.81
31088;BME280;17745;55.914;37.554;2023-07-29T14:13:18;98156.34;;;20.03;82.61
